Date,TemperatureHighF,TemperatureAvgF,TemperatureLowF,DewpointHighF,DewpointAvgF,DewpointLowF,HumidityHigh,HumidityAvg,HumidityLow,PressureMaxIn,PressureMinIn,WindSpeedMaxMPH,WindSpeedAvgMPH,GustSpeedMaxMPH,PrecipitationSumIn
2012-1-1,50.0,44.4,36.9,37.8,35.0,30.7,84,70,54,30.32,30.06,7,4,14,0.00
2012-1-2,56.1,49.0,45.9,46.0,39.3,33.7,90,70,49,30.21,29.87,6,2,11,0.16
2012-1-3,48.5,45.5,43.9,45.1,42.1,40.4,93,88,78,30.28,30.13,4,2,9,0.24
2012-1-4,55.9,49.4,45.5,49.2,45.2,37.7,93,86,54,30.16,29.97,6,2,10,0.50
2012-1-5,48.3,42.5,38.2,44.6,39.9,36.1,93,90,83,30.36,30.11,6,1,11,0.21
2012-1-6,41.3,37.9,35.3,38.9,35.7,33.2,94,92,84,30.36,30.26,1,0,11,0.01
2012-1-7,38.5,37.1,35.1,36.9,35.3,33.0,94,93,89,30.46,30.33,2,1,11,0.11
2012-1-8,48.1,43.6,38.2,44.2,41.0,36.6,94,91,84,30.38,30.20,5,2,11,0.00
2012-1-9,48.1,44.6,38.8,45.5,42.4,37.0,94,92,87,30.26,30.19,4,1,11,0.16
2012-1-10,43.1,34.9,29.4,37.7,31.8,27.6,95,89,69,30.54,30.25,3,1,11,0.00
2012-1-11,42.9,33.3,28.8,32.8,29.3,26.8,94,86,65,30.53,30.39,3,1,7,0.00
2012-1-12,44.1,34.1,28.1,36.2,30.4,26.3,94,87,65,30.41,30.28,2,1,4,0.01
2012-1-13,36.7,32.6,28.1,33.5,30.4,26.3,94,91,85,30.33,30.05,2,1,4,0.00
2012-1-14,35.9,33.0,31.3,34.1,31.1,29.5,94,93,92,30.05,29.86,3,0,3,0.51
2012-1-15,38.4,30.5,22.8,34.2,28.6,21.2,94,93,79,30.09,29.97,1,0,3,0.04
2012-1-16,32.7,29.5,23.9,31.2,27.9,22.2,94,94,93,30.13,29.91,2,0,7,0.00
2012-1-17,32.5,31.4,29.7,30.7,29.7,28.2,94,93,93,29.91,29.79,1,0,3,0.00
2012-1-18,29.6,26.4,23.3,28.1,24.9,21.8,94,94,93,29.97,29.64,0,0,0,0.00
2012-1-19,28.2,25.2,23.9,26.7,23.6,22.4,94,94,91,29.80,29.57,0,0,0,0.00
2012-1-20,41.9,35.5,27.8,39.9,33.7,26.3,94,93,92,29.77,29.06,4,1,9,0.40
2012-1-21,45.0,37.8,33.8,43.2,35.9,32.0,94,93,92,29.90,29.03,4,1,9,1.26
2012-1-22,43.0,37.9,34.1,39.7,35.7,32.3,95,92,79,29.90,29.43,6,3,12,0.18
2012-1-23,47.6,39.1,34.1,38.3,35.4,32.2,94,87,66,30.02,29.79,4,1,10,0.00
2012-1-24,50.1,41.6,35.5,47.7,39.3,32.7,94,91,77,30.01,29.63,5,2,9,0.57
2012-1-25,44.0,39.7,35.3,42.1,37.9,33.4,94,93,92,30.23,29.82,4,1,8,0.15
2012-1-26,45.8,39.0,30.2,43.5,34.9,28.4,94,85,66,30.58,29.90,5,2,13,0.02
2012-1-27,45.5,34.9,30.2,32.4,30.0,28.2,94,84,54,30.64,30.49,3,1,5,0.00
2012-1-28,38.7,35.7,33.0,35.0,31.3,29.4,92,84,78,30.50,30.31,4,2,11,0.01
2012-1-29,49.4,45.7,41.7,46.9,43.2,38.1,93,91,72,30.04,29.76,3,1,8,1.42
2012-1-30,43.6,42.6,41.4,42.0,40.7,39.3,94,93,89,30.06,29.80,2,1,8,0.08
2012-1-31,48.0,43.4,41.0,42.2,40.2,38.9,93,89,75,30.07,29.89,2,1,6,0.15
2012-2-1,48.1,41.1,36.4,43.2,38.8,34.3,94,92,79,30.45,29.86,3,1,6,0.76
2012-2-2,49.7,39.4,33.9,39.7,35.7,32.1,94,87,63,30.49,30.25,4,2,12,0.00
2012-2-3,61.0,44.1,35.5,41.9,35.6,28.9,94,74,38,30.26,30.08,3,1,6,0.00
2012-2-4,62.0,46.3,35.3,33.5,30.1,27.7,82,55,30,30.21,30.12,4,2,9,0.00
2012-2-5,56.7,45.4,38.6,38.7,31.7,27.9,79,60,37,30.23,30.13,4,2,9,0.00
2012-2-6,62.2,48.2,35.9,32.8,27.7,21.0,80,49,22,30.13,29.92,5,2,11,0.00
2012-2-7,63.1,51.6,46.8,33.5,27.5,24.8,52,40,25,29.99,29.84,5,3,11,0.00
2012-2-8,48.2,45.0,42.4,45.4,40.1,27.2,93,84,47,30.28,30.00,4,2,9,0.11
2012-2-9,47.6,45.5,42.2,45.5,43.1,40.2,93,91,85,30.28,30.03,4,3,15,0.32
2012-2-10,54.1,48.9,45.2,48.5,45.1,43.0,93,87,75,30.04,29.90,4,2,16,0.12
2012-2-11,51.1,45.7,43.4,44.4,42.0,39.6,93,87,75,30.14,30.04,4,1,10,0.01
2012-2-12,48.5,43.7,40.7,41.0,39.6,38.8,93,86,73,30.12,29.89,3,0,10,0.00
2012-2-13,45.6,41.8,39.5,43.0,39.5,37.1,94,91,88,30.04,29.92,2,0,2,0.05
2012-2-14,44.9,39.5,34.0,39.5,37.0,31.9,94,91,78,30.18,29.91,2,0,4,0.17
2012-2-15,46.6,38.4,33.9,39.5,35.6,32.1,94,90,71,30.39,30.19,2,0,3,0.00
2012-2-16,41.7,39.2,36.0,39.8,36.8,34.2,94,91,84,30.30,30.19,5,1,8,0.29
2012-2-17,47.5,42.1,39.1,44.4,39.9,37.0,94,92,85,30.25,29.80,4,2,11,0.44
2012-2-18,41.7,39.4,36.4,38.8,36.7,34.3,93,90,86,30.04,29.87,5,2,10,0.79
2012-2-19,40.5,36.7,34.8,38.1,34.8,33.0,94,93,89,30.09,29.91,3,0,6,0.14
2012-2-20,43.9,38.7,33.6,40.4,36.1,32.1,94,90,77,30.02,29.89,4,2,8,0.35
2012-2-21,46.7,43.2,39.9,44.5,40.9,37.8,93,92,91,30.06,29.98,2,1,4,3.52
2012-2-22,46.5,43.6,40.1,44.0,40.0,37.4,94,87,77,30.29,29.93,6,2,13,0.65
2012-2-23,45.8,40.5,37.6,40.4,37.5,35.5,93,89,76,30.38,30.27,2,0,3,0.11
2012-2-24,44.1,40.1,36.4,42.2,38.1,34.6,94,93,87,30.27,29.55,4,2,8,0.38
2012-2-25,42.3,35.8,32.5,40.4,33.8,30.5,94,93,86,30.10,29.55,4,1,8,0.74
2012-2-26,43.3,34.2,28.6,35.5,30.6,23.0,94,87,61,30.19,30.12,3,0,8,0.62
2012-2-27,45.8,33.3,27.0,30.5,25.9,21.8,93,75,45,30.22,29.97,4,2,10,0.04
2012-2-28,42.6,35.8,30.5,33.5,29.4,27.0,91,78,56,29.97,29.47,7,3,15,0.02
2012-2-29,37.6,34.4,32.3,35.8,32.5,30.2,93,93,91,29.77,29.50,3,1,9,0.50
2012-3-1,36.8,33.3,32.2,35.2,31.4,30.1,94,92,92,30.33,29.78,1,0,1,0.29
2012-3-2,38.0,35.0,32.8,36.4,33.2,30.8,94,93,92,30.41,30.33,2,1,7,1.90
2012-3-3,42.9,39.3,36.2,40.3,37.2,34.1,93,92,92,30.35,30.31,2,1,5,0.53
2012-3-4,48.0,43.1,39.1,44.8,40.9,37.2,95,92,83,30.35,29.95,3,1,6,0.06
2012-3-5,45.8,40.3,31.6,42.0,36.1,29.8,93,85,66,29.94,29.75,5,2,11,0.34
2012-3-6,43.9,34.4,27.6,37.3,29.8,23.5,94,85,47,30.36,29.88,3,0,11,0.27
2012-3-7,46.1,35.5,28.3,35.0,28.9,25.9,93,79,51,30.48,30.35,3,1,11,0.00
2012-3-8,59.7,45.6,32.6,48.4,38.1,30.3,91,76,57,30.40,30.14,4,2,11,0.00
2012-3-9,47.7,43.5,39.1,42.2,40.0,36.7,93,88,73,30.21,29.93,4,1,11,0.80
2012-3-10,45.0,42.9,41.3,42.3,40.6,39.2,93,91,87,29.94,29.62,4,1,11,0.33
2012-3-11,42.4,40.3,38.7,40.5,38.4,36.9,93,93,89,29.62,29.56,2,1,11,0.11
2012-3-12,41.8,38.2,35.1,39.9,35.8,32.2,93,91,75,29.68,29.32,6,2,13,0.88
2012-3-13,40.7,35.9,32.5,37.1,33.3,30.4,94,90,78,29.87,29.34,5,1,8,0.22
2012-3-14,40.9,36.2,32.1,39.0,34.0,30.3,93,92,81,29.87,29.69,5,2,13,0.16
2012-3-15,52.5,45.7,38.0,47.7,42.1,36.2,93,87,79,29.69,29.47,7,3,14,0.45
2012-3-16,50.9,42.9,37.4,40.8,38.0,35.2,93,83,59,29.68,29.37,6,2,12,0.25
2012-3-17,46.3,38.5,34.5,40.5,35.8,32.4,93,90,71,29.66,29.33,4,1,8,0.58
2012-3-18,42.9,35.8,32.6,39.3,33.6,30.5,94,92,83,29.70,29.62,2,0,7,0.44
2012-3-19,43.9,37.2,31.2,37.8,32.7,29.1,94,84,63,29.90,29.63,3,1,0,0.54
2012-3-20,44.3,38.5,35.3,40.7,36.3,33.3,93,92,85,29.94,29.50,3,1,5,1.02
2012-3-21,49.2,38.9,32.0,38.6,32.9,29.3,94,80,49,30.02,29.79,3,1,6,0.28
2012-3-22,49.4,39.6,33.2,39.1,33.9,29.9,93,82,48,30.06,29.79,4,1,7,0.11
2012-3-23,56.8,41.8,30.8,39.3,32.8,29.0,93,74,38,30.07,29.95,4,2,6,0.00
2012-3-24,62.9,47.0,36.6,41.6,34.2,30.1,85,64,34,30.06,29.87,5,2,9,0.00
2012-3-25,61.2,47.8,36.1,45.1,39.6,32.9,91,74,52,29.88,29.67,4,1,5,0.00
2012-3-26,50.2,44.5,39.6,44.0,41.3,37.5,92,88,70,29.81,29.70,4,1,8,0.16
2012-3-27,61.8,49.9,40.7,44.4,39.8,36.7,91,70,43,29.73,29.48,5,3,9,0.00
2012-3-28,50.2,46.1,39.3,44.9,41.0,36.9,92,83,63,29.81,29.50,6,2,10,0.21
2012-3-29,46.1,43.9,40.8,43.0,41.6,38.4,92,92,87,29.68,29.40,4,2,12,0.56
2012-3-30,46.7,42.4,36.6,43.9,39.9,34.2,93,91,83,29.76,29.44,4,1,6,0.54
2012-3-31,44.4,39.8,36.3,42.5,37.8,33.9,93,92,89,29.72,29.39,5,2,9,0.41
2012-4-1,46.9,41.0,38.3,44.0,38.7,36.0,93,92,79,30.18,29.49,5,1,9,0.40
2012-4-2,59.2,47.8,38.7,45.9,40.0,36.9,93,76,51,30.23,29.85,5,2,14,0.00
2012-4-3,51.3,44.0,37.8,43.5,38.3,34.3,92,82,52,29.97,29.72,3,1,11,0.66
2012-4-4,51.4,40.5,33.2,41.1,36.2,31.1,94,85,57,30.08,29.95,4,0,11,0.04
2012-4-5,52.7,39.8,31.3,42.5,35.6,28.9,93,85,58,30.16,30.08,3,1,11,0.20
2012-4-6,51.7,40.7,35.4,41.5,36.7,33.0,93,86,58,30.29,30.15,4,1,11,0.18
2012-4-7,62.4,45.9,32.5,39.4,32.1,22.9,93,65,23,30.31,30.17,4,2,8,0.01
2012-4-8,70.5,53.3,41.9,42.7,30.8,25.9,68,45,20,30.21,29.97,4,2,10,0.00
2012-4-9,70.1,54.0,45.7,47.4,36.8,30.4,84,54,27,30.00,29.81,4,2,7,0.00
2012-4-10,68.4,54.7,43.2,50.0,43.8,37.9,91,69,39,29.81,29.69,4,1,8,0.00
2012-4-11,50.6,46.8,39.6,47.4,43.8,37.5,92,89,81,29.76,29.62,2,0,3,0.33
2012-4-12,62.0,48.3,41.3,48.1,43.1,39.1,93,83,48,29.81,29.69,5,1,8,0.04
2012-4-13,60.3,46.9,36.0,48.8,40.1,33.6,92,79,55,29.90,29.78,4,2,7,0.01
2012-4-14,61.6,48.5,36.9,47.7,40.2,34.7,92,75,49,30.14,29.90,4,1,10,0.00
2012-4-15,62.8,49.3,37.6,47.3,40.2,33.6,92,73,36,30.20,29.97,3,1,8,0.00
2012-4-16,53.0,46.7,41.3,49.9,43.4,38.7,92,89,67,30.20,29.86,5,1,9,1.11
2012-4-17,50.1,44.1,39.9,43.3,40.2,37.5,92,87,69,30.22,29.98,4,1,5,0.05
2012-4-18,47.1,43.0,41.8,44.7,40.7,39.6,92,92,90,29.99,29.95,3,2,7,0.08
2012-4-19,57.1,47.4,39.3,48.2,43.0,36.6,92,85,59,30.08,29.96,3,1,0,0.89
2012-4-20,58.1,48.6,40.1,48.4,43.5,37.4,92,84,59,30.23,29.99,3,1,5,0.68
2012-4-21,67.2,51.2,38.8,54.0,43.9,36.4,92,78,52,30.20,29.99,3,1,6,0.01
2012-4-22,74.1,57.0,47.5,57.3,49.8,44.8,92,79,50,29.99,29.84,3,1,6,0.00
2012-4-23,72.8,56.6,45.2,58.2,49.8,42.4,92,79,55,29.91,29.78,4,1,6,0.01
2012-4-24,52.8,50.9,48.3,50.2,48.0,45.3,91,90,89,29.91,29.79,2,0,4,0.49
2012-4-25,56.7,53.4,50.4,54.0,50.6,47.3,92,90,88,29.81,29.58,3,1,5,0.45
2012-4-26,51.2,46.5,43.0,48.7,43.9,40.6,92,91,83,30.00,29.59,2,1,6,0.64
2012-4-27,55.4,47.4,42.8,45.1,41.9,38.7,92,82,54,30.28,30.01,3,1,6,0.01
2012-4-28,63.1,52.2,44.7,51.9,45.6,42.2,92,80,54,30.28,30.17,3,1,6,0.00
2012-4-29,60.1,52.8,49.2,52.5,49.2,46.1,91,88,72,30.17,29.77,2,0,4,0.19
2012-4-30,52.4,47.0,43.2,49.8,44.3,40.6,92,91,87,29.88,29.64,3,1,5,1.42
2012-5-1,49.2,43.3,41.3,46.3,40.8,38.6,92,91,82,29.97,29.88,2,0,5,1.23
2012-5-2,57.6,46.6,40.3,46.3,40.7,37.6,93,81,50,30.01,29.77,4,1,7,0.04
2012-5-3,55.0,47.7,43.1,50.2,44.4,40.4,92,89,72,29.77,29.59,3,1,6,0.18
2012-5-4,52.8,44.6,40.5,49.0,41.2,38.1,92,88,68,30.35,29.94,3,1,4,0.91
2012-5-5,56.4,45.6,40.5,45.8,41.0,37.9,92,85,59,30.50,30.35,3,0,5,0.05
2012-5-6,65.6,49.8,37.2,49.9,41.6,34.8,92,76,44,30.50,30.36,4,1,6,0.00
2012-5-7,76.5,57.0,43.3,55.7,46.3,40.7,92,72,28,30.37,30.07,3,1,5,0.00
2012-5-8,64.8,53.2,44.9,53.1,44.3,29.0,91,73,46,30.16,30.08,4,1,7,0.00
2012-5-9,57.2,47.4,40.3,41.8,36.9,31.0,91,69,40,30.34,30.16,5,1,10,0.01
2012-5-10,58.8,46.6,36.4,42.1,36.5,29.8,91,71,40,30.43,30.32,3,1,7,0.02
2012-5-11,68.5,50.2,35.3,47.0,38.8,32.9,91,69,33,30.35,30.17,4,1,6,0.00
2012-5-12,79.3,59.0,41.0,52.4,43.6,37.9,91,62,28,30.22,30.09,4,1,6,0.00
2012-5-13,81.6,65.2,48.6,56.2,47.0,40.6,87,54,36,30.17,30.01,3,1,6,0.00
2012-5-14,80.0,60.4,48.9,57.2,48.6,44.2,90,69,35,30.05,29.94,4,1,9,0.00
2012-5-15,75.2,60.1,45.8,54.8,48.3,42.5,91,68,38,30.08,30.00,4,1,6,0.00
2012-5-16,68.0,53.4,39.7,51.1,43.0,37.0,91,71,41,30.08,30.00,3,1,8,0.00
2012-5-17,65.8,52.1,37.9,47.7,40.1,31.7,92,67,31,30.05,29.96,3,1,7,0.00
2012-5-18,61.4,49.8,39.3,47.6,42.6,36.9,91,78,52,30.16,30.03,3,1,8,0.04
2012-5-19,69.2,54.3,38.7,49.1,41.7,35.7,91,66,31,30.11,30.01,3,1,6,0.00
2012-5-20,60.9,55.2,52.9,53.3,48.1,42.8,90,77,58,30.01,29.91,2,1,4,0.50
2012-5-21,58.2,54.4,52.6,55.3,51.2,49.3,91,89,87,29.92,29.78,3,1,6,0.38
2012-5-22,52.7,49.8,46.9,49.8,46.8,43.8,92,89,83,29.92,29.86,3,1,8,0.67
2012-5-23,51.7,48.7,46.2,48.9,45.8,43.1,92,90,88,29.99,29.89,2,0,3,1.32
2012-5-24,63.5,51.9,44.1,54.2,46.0,41.4,92,81,59,29.97,29.78,3,1,4,0.19
2012-5-25,71.5,54.0,41.2,62.0,47.0,38.2,92,79,50,29.90,29.82,3,1,6,0.03
2012-5-26,76.6,59.8,45.2,55.6,47.4,38.7,91,67,32,29.92,29.79,3,1,10,0.00
2012-5-27,62.6,55.2,47.0,52.9,48.9,44.0,90,80,60,30.05,29.92,2,0,10,0.00
2012-5-28,59.0,52.4,45.0,53.4,48.8,42.0,91,88,79,30.11,30.02,2,0,10,0.31
2012-5-29,62.2,52.2,44.5,48.6,44.7,41.5,92,77,53,30.16,30.11,3,1,10,0.00
2012-5-30,65.9,55.8,47.5,54.3,48.4,45.0,91,77,51,30.24,30.11,2,0,6,0.12
2012-5-31,58.7,55.7,53.2,55.8,52.4,49.7,90,88,87,30.13,29.99,2,0,6,0.27
2012-6-1,61.3,55.8,54.6,58.7,52.3,50.8,91,88,87,29.99,29.89,3,1,6,0.26
2012-6-2,64.4,54.3,48.1,55.2,49.2,44.7,92,83,66,29.95,29.84,2,1,4,0.00
2012-6-3,60.9,51.6,44.2,49.9,45.2,41.2,91,80,56,29.99,29.88,2,0,4,0.00
2012-6-4,56.7,50.3,44.1,51.8,47.0,41.1,91,88,81,29.89,29.70,2,1,6,0.05
2012-6-5,56.2,49.9,46.1,51.4,46.0,42.7,91,86,67,30.19,29.79,3,1,6,0.66
2012-6-6,59.1,50.9,44.6,48.2,44.3,41.7,91,79,56,30.19,30.00,3,1,7,0.06
2012-6-7,54.0,49.8,45.5,51.4,46.1,42.4,91,87,77,30.00,29.81,5,2,9,0.68
2012-6-8,61.9,50.7,45.2,50.2,45.3,42.2,92,82,55,30.03,29.93,4,1,7,0.03
2012-6-9,59.2,50.5,46.1,50.3,45.7,42.8,91,84,64,30.22,30.03,3,1,5,0.00
2012-6-10,66.1,54.5,46.2,54.0,47.8,42.9,91,79,57,30.27,30.20,2,0,6,0.00
2012-6-11,76.2,60.0,46.2,58.8,50.6,43.2,91,73,45,30.21,30.04,4,1,6,0.01
2012-6-12,67.2,58.4,53.6,56.2,53.7,50.4,90,85,61,30.04,29.96,3,1,4,0.27
2012-6-13,57.3,52.0,47.4,51.5,48.0,44.6,91,86,74,30.18,29.99,2,0,4,0.11
2012-6-14,59.3,51.0,42.7,51.3,46.2,39.7,91,84,70,30.15,30.09,3,0,4,0.00
2012-6-15,71.5,57.0,41.7,57.0,47.6,38.7,92,73,46,30.18,30.11,4,1,6,0.01
2012-6-16,63.7,59.8,56.5,60.2,55.7,51.5,90,86,75,30.12,29.92,2,1,6,0.57
2012-6-17,60.3,56.9,55.5,56.7,53.1,51.7,88,87,87,29.92,29.88,2,0,4,0.07
2012-6-18,61.1,52.8,48.4,53.1,47.9,45.3,92,84,64,30.02,29.83,3,1,7,0.38
2012-6-19,65.1,54.1,47.8,54.0,49.2,44.4,91,84,61,30.15,30.02,4,1,5,0.08
2012-6-20,76.8,60.3,45.5,58.6,51.0,42.4,92,74,47,30.15,29.90,4,1,6,0.00
2012-6-21,72.6,60.7,48.4,61.4,53.4,45.0,91,78,60,29.92,29.73,3,1,6,0.00
2012-6-22,60.2,52.7,46.8,53.2,49.0,43.4,92,87,72,29.81,29.68,2,0,6,0.64
2012-6-23,63.3,54.3,46.1,58.1,51.0,43.0,91,89,82,29.94,29.68,5,1,17,0.83
2012-6-24,69.2,53.6,43.8,54.1,47.4,41.1,92,81,52,30.05,29.92,3,1,6,0.01
2012-6-25,65.7,55.4,44.8,57.0,50.2,41.8,92,83,68,30.03,29.90,4,1,6,0.00
2012-6-26,57.4,52.8,49.7,52.3,49.3,46.3,91,88,81,30.06,29.90,2,0,5,0.01
2012-6-27,73.6,60.6,49.4,58.2,50.7,46.3,91,73,41,30.06,29.89,3,1,6,0.01
2012-6-28,77.4,62.7,53.1,58.9,52.7,50.0,90,72,43,30.00,29.87,2,1,4,0.09
2012-6-29,73.3,63.4,56.4,62.7,57.3,52.7,91,81,62,30.05,29.98,4,1,6,0.02
2012-6-30,68.2,61.0,53.6,64.2,57.3,49.8,91,88,84,29.99,29.89,2,0,4,0.62
2012-7-1,65.8,56.3,50.5,56.4,51.5,47.1,91,84,68,30.06,29.94,2,1,4,0.05
2012-7-2,65.0,56.2,50.0,55.9,51.1,46.8,91,83,66,30.02,29.85,2,0,4,0.15
2012-7-3,58.8,53.5,50.5,54.3,50.1,47.1,91,88,82,30.14,29.81,3,1,9,1.17
2012-7-4,72.1,57.4,46.9,56.5,49.5,43.5,91,77,51,30.14,29.94,3,1,6,0.00
2012-7-5,77.3,59.6,42.9,60.2,50.4,39.9,91,74,42,30.02,29.96,4,1,8,0.01
2012-7-6,76.7,60.4,46.7,60.4,51.9,43.3,92,75,51,30.11,30.00,4,1,6,0.00
2012-7-7,80.7,63.4,47.1,65.1,54.6,43.7,91,75,52,30.14,29.99,4,1,9,0.00
2012-7-8,82.5,65.6,50.8,66.4,57.0,47.2,92,75,52,30.06,29.92,4,1,7,0.00
2012-7-9,74.9,63.4,53.2,62.2,56.2,49.7,90,78,61,30.09,29.99,4,1,7,0.00
2012-7-10,74.6,58.8,46.1,62.2,52.7,42.7,91,81,59,30.19,30.05,4,1,7,0.00
2012-7-11,78.3,64.0,51.6,65.7,56.8,47.9,91,79,58,30.07,29.95,4,1,7,0.00
2012-7-12,79.9,64.6,50.5,65.1,57.0,46.8,91,77,57,29.98,29.90,4,1,8,0.01
2012-7-13,66.5,60.3,52.8,61.8,56.4,49.0,91,87,83,30.01,29.93,3,0,7,0.13
2012-7-14,77.4,65.5,54.2,67.4,59.8,50.6,91,82,66,29.95,29.88,3,1,7,0.01
2012-7-15,67.0,60.4,53.0,59.1,55.3,49.0,90,84,68,29.92,29.85,4,1,7,0.20
2012-7-16,79.6,64.2,52.0,66.9,57.4,48.3,91,80,60,29.91,29.73,4,1,7,0.00
2012-7-17,79.8,67.7,57.6,68.3,61.7,53.4,91,82,63,29.88,29.76,2,1,5,0.00
2012-7-18,68.4,62.7,57.9,61.8,58.1,54.1,90,85,76,30.03,29.88,2,0,5,0.01
2012-7-19,80.6,67.6,56.9,68.3,60.4,53.5,90,79,60,30.04,29.86,3,1,8,0.00
2012-7-20,64.2,61.4,59.3,60.9,57.6,55.4,90,87,85,30.17,29.90,2,1,6,0.49
2012-7-21,75.5,64.3,54.6,63.1,57.5,50.5,90,79,57,30.18,30.04,3,1,4,0.00
2012-7-22,63.9,56.2,51.4,57.0,51.5,47.7,91,84,69,30.12,30.03,3,1,5,0.14
2012-7-23,60.1,54.3,50.5,56.6,50.9,46.8,91,88,85,30.23,30.12,1,0,4,0.02
2012-7-24,73.1,61.6,50.9,63.5,55.1,47.2,91,80,65,30.17,29.97,3,1,6,0.00
2012-7-25,81.0,64.7,50.0,68.6,57.9,46.3,90,79,58,30.01,29.88,4,1,6,0.00
2012-7-26,79.3,65.7,53.5,67.8,58.4,49.7,92,78,58,29.95,29.86,4,1,6,0.00
2012-7-27,65.1,58.8,53.1,59.3,54.7,49.0,90,87,79,30.09,29.91,1,0,2,0.02
2012-7-28,72.0,61.7,52.5,62.0,55.5,48.4,90,81,65,30.14,30.09,3,1,8,0.00
2012-7-29,75.5,61.0,48.4,65.8,54.4,44.7,91,80,62,30.15,30.07,3,1,7,0.00
2012-7-30,66.7,58.0,49.4,59.5,53.4,45.7,91,85,73,30.15,30.09,2,0,6,0.00
2012-7-31,72.9,60.7,50.6,62.2,53.8,46.9,90,79,57,30.16,30.12,4,1,7,0.01
2012-8-1,72.5,59.1,46.5,61.8,52.8,43.1,91,80,62,30.20,30.13,4,1,9,0.00
2012-8-2,74.0,60.7,51.0,63.5,55.0,47.3,90,82,64,30.16,30.08,3,1,6,0.00
2012-8-3,83.6,64.6,49.4,69.6,57.4,46.0,91,79,56,30.11,29.95,4,1,12,0.01
2012-8-4,96.9,73.7,58.4,72.2,62.0,54.1,90,70,31,29.97,29.79,4,1,12,0.00
2012-8-5,92.8,77.0,62.9,75.5,65.7,58.9,89,70,47,29.93,29.84,3,1,12,0.00
2012-8-6,81.2,67.9,58.5,69.8,61.5,54.0,89,80,65,30.06,29.93,3,1,12,0.00
2012-8-7,66.6,62.2,55.4,62.8,58.2,51.3,89,87,85,30.08,30.00,3,0,12,0.01
2012-8-8,71.4,62.1,52.9,61.5,56.6,48.8,90,83,63,30.20,30.04,3,0,12,0.04
2012-8-9,75.1,58.3,48.4,63.8,52.8,45.0,93,83,64,30.20,30.10,2,1,12,0.01
2012-8-10,77.4,61.7,48.2,66.0,54.8,44.7,90,79,56,30.13,30.01,3,1,0,0.01
2012-8-11,81.1,65.0,50.6,67.6,57.4,46.9,90,78,59,30.08,29.94,3,1,0,0.00
2012-8-12,85.4,68.8,55.7,70.3,60.5,51.3,89,76,54,29.97,29.87,4,1,7,0.01
2012-8-13,82.7,66.1,53.2,68.3,56.7,47.2,91,74,40,30.00,29.94,3,1,6,0.00
2012-8-14,79.8,62.6,50.1,67.1,56.7,46.1,89,82,55,29.99,29.86,3,1,6,0.00
2012-8-15,91.2,67.9,51.6,68.7,58.1,47.9,89,74,39,29.94,29.82,3,1,10,0.01
2012-8-16,95.5,74.6,58.7,68.3,60.2,54.9,89,65,31,29.92,29.83,3,1,10,0.00
2012-8-17,91.3,74.9,60.7,71.8,62.7,57.0,89,68,46,29.94,29.86,3,1,5,0.00
2012-8-18,76.8,64.2,53.5,66.6,58.6,49.4,91,82,66,29.95,29.83,3,1,8,0.00
2012-8-19,68.5,62.0,57.2,62.8,57.6,52.7,89,85,79,30.01,29.92,1,0,4,0.07
2012-8-20,76.7,63.3,54.0,62.7,56.1,49.9,90,79,55,30.03,29.92,3,1,8,0.00
2012-8-21,69.8,59.3,49.7,59.6,53.5,46.0,91,81,64,30.03,29.94,3,0,8,0.00
2012-8-22,70.7,59.2,51.2,57.5,52.1,47.5,90,78,56,30.10,30.03,3,1,8,0.00
2012-8-23,67.9,55.2,47.8,54.8,48.2,44.0,90,79,50,30.11,30.04,4,1,8,0.00
2012-8-24,70.9,58.1,48.4,56.0,50.7,44.7,89,78,53,30.19,30.01,3,1,8,0.00
2012-8-25,82.6,61.7,47.5,61.5,51.6,44.0,90,73,39,30.00,29.71,3,1,8,0.00
2012-8-26,76.6,63.8,49.4,60.0,53.6,45.7,89,71,51,29.94,29.72,4,1,8,0.00
2012-8-27,76.6,62.9,51.8,56.4,52.4,47.6,89,71,38,30.03,29.93,3,1,6,0.00
2012-8-28,71.3,58.7,48.9,57.5,51.4,45.1,90,78,51,30.04,29.99,3,0,6,0.04
2012-8-29,70.7,59.9,53.3,57.5,53.3,49.0,91,80,59,30.12,30.03,2,0,6,0.00
2012-8-30,73.8,60.3,48.0,59.0,52.5,44.3,90,77,52,30.04,29.87,3,1,6,0.00
2012-8-31,72.1,55.2,43.0,57.6,48.2,39.7,91,79,52,29.98,29.91,4,1,6,0.01
2012-9-1,72.8,56.6,43.3,56.1,48.3,39.8,90,75,51,30.13,29.98,3,1,6,0.00
2012-9-2,72.2,56.5,44.9,56.3,48.6,41.3,90,77,49,30.18,30.11,3,1,7,0.00
2012-9-3,72.1,56.1,43.1,59.8,49.4,39.5,90,79,53,30.17,30.08,4,1,8,0.01
2012-9-4,75.8,59.7,47.0,61.3,52.5,43.3,91,78,57,30.19,30.08,4,1,6,0.00
2012-9-5,78.2,62.1,50.5,63.2,54.5,46.5,89,78,54,30.10,29.90,3,1,5,0.01
2012-9-6,84.5,63.3,48.2,63.2,53.0,44.5,92,73,34,30.04,29.93,3,1,6,0.00
2012-9-7,88.8,69.4,56.5,60.5,53.9,50.4,87,62,28,30.11,29.99,3,1,7,0.00
2012-9-8,85.4,69.9,56.7,62.3,52.8,45.8,89,57,26,30.01,29.86,4,1,6,0.00
2012-9-9,64.3,59.1,55.2,56.7,53.7,51.7,89,82,71,29.99,29.92,3,1,5,0.12
2012-9-10,63.9,53.6,44.9,53.0,47.6,41.6,90,81,59,30.21,29.92,3,1,7,0.32
2012-9-11,66.4,52.7,41.9,52.1,44.7,38.3,90,76,49,30.32,30.21,3,1,8,0.00
2012-9-12,76.2,54.8,41.1,53.5,44.5,37.5,90,71,41,30.37,30.23,3,1,5,0.00
2012-9-13,81.8,62.6,49.9,60.4,49.6,42.9,88,66,33,30.23,30.03,2,1,0,0.00
2012-9-14,78.5,63.0,49.2,57.4,51.0,45.6,89,67,41,30.07,29.99,3,1,2,0.00
2012-9-15,76.5,60.2,49.5,58.6,51.7,45.6,89,75,46,30.16,30.04,3,1,7,0.00
2012-9-16,76.8,58.4,45.5,61.0,51.1,41.9,91,78,51,30.20,30.09,3,1,5,0.00
2012-9-17,83.7,63.9,52.0,61.3,53.8,47.6,89,73,34,30.11,29.97,3,1,5,0.01
2012-9-18,83.9,65.6,53.7,60.2,54.4,49.3,88,70,37,30.05,29.98,3,1,4,0.00
2012-9-19,76.1,59.2,46.5,61.6,52.4,42.8,90,79,58,30.14,30.03,3,1,5,0.00
2012-9-20,73.9,57.0,46.3,61.8,50.9,42.6,90,81,57,30.09,29.98,3,1,6,0.01
2012-9-21,59.0,55.2,49.1,55.5,51.4,45.1,89,87,85,30.13,30.08,1,0,3,0.03
2012-9-22,62.9,55.0,46.1,55.1,50.2,42.4,90,84,69,30.15,30.10,2,0,3,0.01
2012-9-23,68.1,53.3,42.7,56.6,47.9,39.7,91,82,63,30.15,30.08,4,1,5,0.01
2012-9-24,69.4,55.1,45.1,56.6,49.6,41.9,90,82,61,30.13,30.07,4,1,5,0.01
2012-9-25,66.4,53.8,45.9,55.8,48.8,41.9,89,84,63,30.13,30.08,3,1,5,0.00
2012-9-26,68.4,52.5,42.3,57.8,47.4,39.2,91,84,66,30.11,30.03,3,1,5,0.00
2012-9-27,73.9,56.8,44.3,60.4,51.0,41.0,92,82,54,30.07,29.92,3,1,4,0.01
2012-9-28,74.5,60.8,51.8,60.5,54.5,47.7,90,81,56,29.99,29.92,3,1,5,0.01
2012-9-29,69.4,55.5,41.8,56.7,49.0,38.2,89,80,52,30.29,30.00,3,1,4,0.00
2012-9-30,70.1,53.6,41.9,53.5,45.6,38.3,90,77,44,30.38,30.28,3,1,6,0.00
2012-10-1,73.9,58.1,45.9,61.3,50.7,42.5,89,78,53,30.35,30.10,3,1,5,0.00
2012-10-2,60.7,52.0,41.5,46.3,37.1,25.0,90,61,28,30.27,30.13,5,2,10,0.00
2012-10-3,68.3,52.7,39.1,43.5,36.1,31.3,89,57,29,30.37,30.26,5,2,15,0.00
2012-10-4,68.4,51.4,40.1,45.8,38.4,33.4,87,64,34,30.29,30.22,3,1,5,0.00
2012-10-5,71.6,53.2,41.2,47.0,37.9,31.2,83,60,24,30.30,30.19,3,1,9,0.00
2012-10-6,74.8,56.1,44.4,46.8,38.1,32.2,82,54,26,30.24,30.10,4,1,7,0.00
2012-10-7,76.4,58.3,48.3,51.2,43.5,37.9,88,60,31,30.10,29.90,3,1,5,0.00
2012-10-8,72.6,56.8,43.7,50.7,45.7,40.4,89,69,43,30.00,29.90,3,1,5,0.00
2012-10-9,53.8,47.2,42.1,50.0,43.7,38.5,90,88,86,30.11,30.00,2,0,5,0.00
2012-10-10,53.4,46.0,36.2,49.4,42.9,33.3,91,89,85,30.04,29.97,2,0,3,0.01
2012-10-11,59.5,49.0,40.8,50.5,44.8,37.3,90,86,70,29.99,29.78,3,0,4,0.00
2012-10-12,53.3,49.2,39.3,50.1,45.7,36.0,90,88,86,29.98,29.79,2,0,5,0.25
2012-10-13,59.0,55.5,52.7,55.8,51.7,48.6,89,87,85,30.11,29.98,2,1,10,0.62
2012-10-14,62.4,58.2,56.8,57.0,54.2,52.3,89,86,81,30.08,29.84,4,1,11,1.18
2012-10-15,61.9,54.8,45.6,56.8,51.0,42.3,91,87,76,29.93,29.50,3,1,7,0.43
2012-10-16,55.5,50.7,44.6,51.3,45.6,41.4,90,83,67,30.26,29.53,3,1,16,0.22
2012-10-17,58.4,49.3,43.7,48.2,44.0,40.1,91,82,58,30.33,30.19,3,1,9,0.01
2012-10-18,56.5,51.8,48.0,50.1,46.4,42.7,89,82,68,30.20,29.78,4,2,9,1.24
2012-10-19,58.8,50.6,43.5,55.3,47.0,39.9,89,87,85,29.80,29.73,4,1,11,1.06
2012-10-20,45.7,41.6,36.9,43.2,38.6,34.2,92,89,88,29.88,29.77,2,1,7,0.81
2012-10-21,48.1,42.8,38.2,43.7,39.5,35.0,91,88,80,30.06,29.83,3,1,9,0.18
2012-10-22,46.4,41.5,37.7,42.2,37.8,35.0,91,87,74,29.98,29.75,4,2,7,0.28
2012-10-23,51.2,43.0,40.4,44.5,39.6,37.1,90,88,77,30.07,29.85,3,1,5,0.31
2012-10-24,49.0,42.2,39.6,45.1,39.2,36.1,91,89,85,30.16,29.85,4,1,7,0.10
2012-10-25,52.3,44.4,40.8,45.3,40.5,37.8,91,86,68,30.41,30.16,3,1,10,0.00
2012-10-26,44.2,43.1,42.3,40.9,39.6,38.9,90,87,82,30.32,30.02,4,2,12,0.45
2012-10-27,48.8,47.6,43.2,45.9,44.0,39.5,90,88,86,30.02,29.75,3,1,9,0.54
2012-10-28,58.9,52.9,49.0,54.0,49.2,45.3,91,87,78,29.92,29.74,2,1,4,0.25
2012-10-29,60.3,55.6,49.3,55.2,51.5,45.3,90,86,79,29.98,29.69,5,2,8,0.05
2012-10-30,55.8,52.3,51.2,52.6,48.2,47.2,89,86,85,29.94,29.74,3,2,9,0.85
2012-10-31,55.9,53.8,52.3,52.1,49.6,48.1,88,86,85,29.75,29.60,3,1,9,1.36
2012-11-1,52.6,51.5,50.6,49.0,47.6,46.6,90,86,85,30.01,29.70,2,1,9,0.24
2012-11-2,58.0,53.0,49.9,54.1,49.1,45.9,90,87,83,30.03,29.93,2,1,5,0.17
2012-11-3,57.4,53.8,50.7,54.1,50.0,46.4,90,87,84,30.16,29.94,3,1,6,0.26
2012-11-4,63.4,56.4,52.1,58.5,52.4,47.8,89,86,83,30.27,30.16,4,2,7,0.54
2012-11-5,57.6,50.1,45.5,51.4,46.1,41.9,91,86,73,30.37,30.15,2,0,7,0.01
2012-11-6,54.5,49.7,45.3,50.4,46.1,42.4,90,88,78,30.15,29.91,4,1,8,0.02
2012-11-7,52.5,43.9,37.6,45.5,40.1,34.9,91,87,69,30.12,29.95,3,1,7,0.16
2012-11-8,52.6,40.0,32.9,40.8,35.1,29.8,91,83,58,29.94,29.80,5,2,11,0.01
2012-11-9,47.7,36.2,29.9,38.1,32.1,27.1,91,86,65,29.95,29.83,2,1,6,0.04
2012-11-10,44.7,32.8,27.1,36.3,28.4,23.3,92,85,43,30.23,29.95,3,1,6,0.01
2012-11-11,39.4,35.5,30.5,36.1,32.0,28.0,91,87,78,30.25,30.08,3,2,8,0.47
2012-11-12,47.3,42.1,39.3,43.9,38.7,36.0,88,88,87,30.16,30.08,3,1,6,0.17
2012-11-13,45.4,44.3,42.9,41.8,40.9,39.6,88,88,87,30.20,30.13,2,1,0,0.98
2012-11-14,48.2,43.8,38.2,45.3,40.6,35.0,92,89,87,30.31,30.17,1,0,0,0.08
2012-11-15,51.7,41.1,35.1,46.9,38.1,32.7,93,89,72,30.25,29.93,4,1,8,0.01
2012-11-16,45.8,40.9,35.8,42.0,37.6,32.6,91,88,85,29.94,29.71,3,2,10,0.28
2012-11-17,52.2,45.6,40.6,46.9,42.1,37.0,90,87,80,29.72,29.44,4,2,9,0.42
2012-11-18,46.0,43.7,41.8,42.9,40.3,38.3,90,88,83,29.76,29.51,4,2,12,0.44
2012-11-19,53.2,48.3,44.3,49.1,44.7,40.4,90,87,85,29.67,29.35,5,2,12,1.58
2012-11-20,49.9,46.5,43.1,46.3,43.1,39.6,90,88,81,29.69,29.49,4,2,12,0.01
2012-11-21,43.9,41.7,40.1,41.2,38.4,36.2,91,88,86,30.29,29.50,4,1,12,0.07
2012-11-22,45.7,40.8,36.8,40.3,37.3,33.4,91,87,78,30.37,30.18,5,2,12,0.00
2012-11-23,48.1,44.6,42.0,44.1,40.8,38.1,90,86,84,30.20,30.02,4,1,11,0.01
2012-11-24,48.4,41.5,35.9,45.0,38.2,32.4,91,88,80,30.26,30.11,2,0,11,0.01
2012-11-25,48.3,38.5,34.5,42.0,35.1,31.0,91,87,75,30.34,30.21,3,1,11,0.01
2012-11-26,50.6,39.0,33.1,37.3,32.4,30.6,91,78,49,30.23,30.05,4,2,11,0.00
2012-11-27,49.7,40.8,35.5,40.0,34.8,30.8,89,79,65,30.08,29.92,3,1,11,0.00
2012-11-28,47.9,42.9,36.0,44.8,39.4,32.5,90,87,83,29.87,29.60,4,1,0,0.16
2012-11-29,48.9,47.1,46.2,45.8,43.2,41.7,89,86,84,29.70,29.43,6,2,12,0.35
2012-11-30,49.9,47.1,45.1,46.8,42.9,40.7,89,85,83,29.45,29.35,4,2,12,1.30
2012-12-1,47.9,45.7,43.2,44.2,41.9,38.7,90,87,81,29.63,29.29,4,2,12,0.46
2012-12-2,46.4,43.9,41.7,43.3,40.1,37.5,90,87,84,29.76,29.17,4,1,12,0.60
2012-12-3,46.7,44.5,43.3,43.0,40.8,39.2,90,86,84,29.99,29.61,4,2,12,0.12
2012-12-4,53.0,48.0,43.6,49.1,43.5,39.1,89,84,69,29.76,29.51,5,3,9,0.25
2012-12-5,45.9,40.5,35.4,41.8,37.1,31.6,91,87,80,30.17,29.77,3,1,7,0.50
2012-12-6,42.4,40.6,38.6,39.1,36.9,34.5,90,87,84,30.16,30.03,3,0,6,0.59
2012-12-7,41.7,38.5,33.6,38.6,34.7,30.1,90,86,84,30.11,29.92,3,0,7,0.26
2012-12-8,39.1,34.3,31.3,36.7,31.1,28.4,91,88,86,30.35,30.11,1,0,3,0.01
2012-12-9,37.9,35.5,33.6,34.1,32.1,29.9,90,87,85,30.38,30.29,4,1,9,0.29
2012-12-10,40.7,39.1,37.3,37.1,35.4,33.5,88,86,84,30.42,30.08,2,0,3,0.00
2012-12-11,41.7,39.7,38.4,38.7,35.9,34.0,90,86,84,30.07,29.55,3,1,6,0.46
2012-12-12,41.5,38.8,36.1,38.2,34.7,32.0,88,85,83,30.02,29.59,1,0,2,0.47
2012-12-13,40.4,37.7,35.6,37.4,34.0,31.2,90,86,84,30.04,29.80,3,1,3,0.39
2012-12-14,41.7,35.9,33.2,38.7,32.0,29.5,90,86,84,29.94,29.78,2,0,5,0.41
2012-12-15,35.3,33.3,31.8,31.8,29.7,27.9,90,86,84,29.92,29.53,3,2,11,0.43
2012-12-16,38.0,35.7,33.2,34.2,31.6,29.2,89,85,82,29.74,28.99,6,2,19,0.58
2012-12-17,39.4,36.3,32.9,35.0,32.4,28.6,90,85,82,29.86,28.97,6,1,19,0.88
2012-12-18,35.8,34.0,33.1,32.4,30.0,28.8,90,85,83,29.97,29.86,2,0,18,0.10
2012-12-19,38.6,34.6,32.6,35.1,30.5,28.4,90,85,82,29.94,29.58,3,2,18,0.83
2012-12-20,39.7,37.6,34.1,35.1,32.6,29.2,86,82,81,29.82,29.52,4,2,18,0.63
2012-12-21,39.9,36.2,33.2,36.7,32.7,28.5,90,87,82,29.82,29.67,5,2,13,0.06
2012-12-22,43.9,39.8,36.3,39.9,35.9,31.3,89,86,76,29.74,29.50,5,2,13,0.23
2012-12-23,42.9,39.3,36.7,39.4,35.0,31.4,89,84,80,29.81,29.61,3,1,13,0.24
2012-12-24,40.8,37.6,34.9,36.7,32.6,30.3,88,82,80,30.16,29.81,3,0,13,0.04
2012-12-25,42.1,37.8,34.6,36.4,33.8,29.7,89,85,70,30.07,29.66,5,3,13,0.11
2012-12-26,41.2,38.6,36.5,37.8,34.6,31.2,89,85,81,29.90,29.70,5,2,13,0.31
2012-12-27,41.4,39.2,37.9,35.7,33.3,32.0,82,79,78,30.16,29.90,2,0,7,0.15
2012-12-28,41.9,38.3,35.3,38.6,34.2,29.8,89,85,79,30.17,30.10,3,1,7,0.01
2012-12-29,39.2,36.7,33.9,35.0,31.7,28.4,88,82,79,30.23,30.14,2,0,7,0.24
2012-12-30,36.3,32.8,29.3,33.4,28.2,24.2,90,83,80,30.31,30.22,2,1,7,0.01
2012-12-31,37.7,32.4,28.6,34.5,28.7,23.5,89,86,81,30.40,30.25,3,1,7,0.01
2013-1-1,41.4,32.0,25.4,36.1,27.7,21.0,89,84,79,30.50,30.34,3,1,4,0.01